Portada
METAR-TAF:

METAR-TAF

Aeroports :

Kazan, Rússia

latitud: 55-47N, longitud: 049-12E, altitud: 125 m

Observació

L'informe es va fer fa 25 minuts, a les 22:00 UTC
Vent 6 kt del Oest
Temperatura -13°C
Humitat 85%
Pressió 1046 hPa
Visibilitat 10 km o més
sense núvols per sota de 1500 mi sense presència de cumulonimbus.

METAR: UWKD 212200Z 26003MPS CAVOK M13/M15 Q1046 R29/710050 NOSIG RMK QFE773/1031

Hora: 01:25 (22:25 UTC)

Pronòstic

L'informe es va fer fa 2 hores i 25 minuts, a les 20:00 UTC
Pronòstic vàlid del 21 a les 21 UTC al 22 a les 21 UTC
Vent 6 kt del Oest/Nord-Oest
Visibilitat 10 km o més
sense núvols per sota de 1500 mi sense presència de cumulonimbus.
Evolucionant progressivament
l' 22 a les 01 UTC al 22 a les 03 UTC
Vent 10 kt del Oest/Nord-Oest amb ràfegues de 19 kt

TAF: UWKD 212000Z 2121/2221 29003MPS CAVOK TXM05/2211Z TNM14/2203Z BECMG 2201/2203 30005G10MPS

Observacions i pronòstics meteorològics de més de 4000 aeroports (METAR i TAF).

Les estacions disponibles són els punts grocs i vermells al mapa.

Posi el ratolí al punt desitjat per veure el nom de l'estació.

Feu clic per veure les observacions i els pronòstics meteorològics.

Per canviar el mapa: feu clic els botons verds amb una creu de color negre per apropar; al botó verd amb un guió per allunyar la imatge; o en les fletxes verdes per a mapes adjacents.


METAR-TAF: